createdAt,value
2023-03-29T00:01:36.629Z,98151.50
2023-03-29T00:04:03.473Z,98153.66
2023-03-29T00:06:30.140Z,98143.25
2023-03-29T00:08:56.706Z,98145.50
2023-03-29T00:11:23.276Z,98143.06
2023-03-29T00:13:49.817Z,98145.66
2023-03-29T00:16:16.410Z,98137.78
2023-03-29T00:18:42.991Z,98140.03
2023-03-29T00:21:09.671Z,98133.03
2023-03-29T00:23:36.411Z,98137.59
2023-03-29T00:26:03.834Z,98141.88
2023-03-29T00:28:31.438Z,98145.72
2023-03-29T00:30:58.152Z,98137.72
2023-03-29T00:33:24.924Z,98136.22
2023-03-29T00:35:51.706Z,98134.97
2023-03-29T00:38:18.310Z,98139.09
2023-03-29T00:40:44.885Z,98138.28
2023-03-29T00:43:11.654Z,98136.63
2023-03-29T00:45:38.285Z,98135.81
2023-03-29T00:48:04.881Z,98137.44
2023-03-29T00:50:31.480Z,98132.94
2023-03-29T00:52:58.225Z,98134.47
2023-03-29T00:55:24.888Z,98132.84
2023-03-29T00:57:51.469Z,98131.84
2023-03-29T01:00:18.069Z,98130.78
2023-03-29T01:02:44.754Z,98127.75
2023-03-29T01:05:11.301Z,98125.56
2023-03-29T01:07:37.876Z,98124.28
2023-03-29T01:10:04.473Z,98130.16
2023-03-29T01:12:31.113Z,98136.50
2023-03-29T01:14:57.672Z,98125.66
2023-03-29T01:17:24.285Z,98120.28
2023-03-29T01:19:50.976Z,98111.97
2023-03-29T01:22:17.561Z,98104.59
2023-03-29T01:24:44.133Z,98101.59
2023-03-29T01:27:10.722Z,98104.47
2023-03-29T01:29:37.275Z,98099.81
2023-03-29T01:32:03.908Z,98101.19
2023-03-29T01:34:30.563Z,98103.53
2023-03-29T01:36:57.203Z,98102.22
2023-03-29T01:39:23.913Z,98101.41
2023-03-29T01:41:50.473Z,98106.88
2023-03-29T01:44:17.086Z,98110.84
2023-03-29T01:46:43.668Z,98111.00
2023-03-29T01:49:10.268Z,98121.25
2023-03-29T01:51:36.819Z,98124.03
2023-03-29T01:54:03.549Z,98113.69
2023-03-29T01:56:30.141Z,98116.75
2023-03-29T01:58:56.737Z,98119.63
2023-03-29T02:01:23.341Z,98113.47
2023-03-29T02:03:50.106Z,98120.34
2023-03-29T02:06:16.701Z,98126.38
2023-03-29T02:08:43.375Z,98123.59
2023-03-29T02:11:09.990Z,98128.00
2023-03-29T02:13:36.587Z,98134.63
2023-03-29T02:16:03.331Z,98129.63
2023-03-29T02:18:29.949Z,98128.28
2023-03-29T02:20:56.526Z,98133.22
2023-03-29T02:23:23.163Z,98133.81
2023-03-29T02:25:49.809Z,98129.25
2023-03-29T02:28:16.377Z,98131.88
2023-03-29T02:30:43.056Z,98128.59
2023-03-29T02:33:09.671Z,98124.28
2023-03-29T02:35:36.382Z,98126.38
2023-03-29T02:38:03.044Z,98118.28
2023-03-29T02:40:29.641Z,98123.59
2023-03-29T02:42:56.284Z,98121.03
2023-03-29T02:45:22.869Z,98114.75
2023-03-29T02:47:49.660Z,98120.66
2023-03-29T02:50:16.368Z,98119.00
2023-03-29T02:52:43.049Z,98127.63
2023-03-29T02:55:09.684Z,98121.53
2023-03-29T02:57:36.262Z,98115.41
2023-03-29T03:00:02.947Z,98119.97
2023-03-29T03:02:29.891Z,98116.78
2023-03-29T03:04:56.442Z,98117.09
2023-03-29T03:07:23.044Z,98122.47
2023-03-29T03:09:49.593Z,98125.00
2023-03-29T03:12:16.205Z,98130.94
2023-03-29T03:14:42.781Z,98121.72
2023-03-29T03:17:09.380Z,98119.91
2023-03-29T03:19:35.919Z,98114.50
2023-03-29T03:22:02.466Z,98107.25
2023-03-29T03:24:29.027Z,98112.44
2023-03-29T03:26:55.595Z,98118.47
2023-03-29T03:29:22.138Z,98108.50
2023-03-29T03:31:48.751Z,98114.50
2023-03-29T03:34:15.366Z,98106.53
2023-03-29T03:36:42.017Z,98094.50
2023-03-29T03:39:08.592Z,98103.88
2023-03-29T03:41:35.150Z,98095.66
2023-03-29T03:44:01.758Z,98096.22
2023-03-29T03:46:29.587Z,98107.59
2023-03-29T03:48:56.928Z,98094.72
2023-03-29T03:51:23.512Z,98094.19
2023-03-29T03:53:50.112Z,98091.75
2023-03-29T03:56:16.734Z,98087.84
2023-03-29T03:58:43.334Z,98082.78
2023-03-29T04:01:10.017Z,98081.72
2023-03-29T04:03:36.718Z,98077.22
2023-03-29T04:06:03.343Z,98073.78
2023-03-29T04:08:29.896Z,98067.44
2023-03-29T04:10:56.520Z,98067.72
2023-03-29T04:13:23.085Z,98068.53
2023-03-29T04:15:49.721Z,98058.81
2023-03-29T04:18:16.498Z,98059.50
2023-03-29T04:20:43.202Z,98053.22
2023-03-29T04:23:09.765Z,98052.34
2023-03-29T04:25:36.327Z,98048.34
2023-03-29T04:28:02.944Z,98044.53
2023-03-29T04:30:29.571Z,98049.38
2023-03-29T04:32:56.299Z,98050.72
2023-03-29T04:35:23.015Z,98047.13
2023-03-29T04:37:49.682Z,98045.13
2023-03-29T04:40:16.213Z,98052.81
2023-03-29T04:42:42.788Z,98052.41
2023-03-29T04:45:09.389Z,98052.25
2023-03-29T04:47:36.053Z,98044.56
2023-03-29T04:50:02.663Z,98041.22
2023-03-29T04:52:29.228Z,98042.91
2023-03-29T04:54:55.843Z,98039.44
2023-03-29T04:57:22.493Z,98031.16
2023-03-29T04:59:49.170Z,98035.78
2023-03-29T05:02:15.729Z,98037.88
2023-03-29T05:04:42.361Z,98040.03
2023-03-29T05:07:08.972Z,98041.97
2023-03-29T05:09:35.682Z,98047.72
2023-03-29T05:12:02.347Z,98048.69
2023-03-29T05:14:29.005Z,98041.53
2023-03-29T05:16:55.586Z,98040.06
2023-03-29T05:19:22.176Z,98029.91
2023-03-29T05:21:48.761Z,98034.28
2023-03-29T05:24:15.375Z,98022.31
2023-03-29T05:26:42.015Z,98036.59
2023-03-29T05:29:08.586Z,98025.03
2023-03-29T05:31:35.194Z,98034.66
2023-03-29T05:34:02.144Z,98018.38
2023-03-29T05:36:28.727Z,98022.75
2023-03-29T05:38:55.311Z,98020.09
2023-03-29T05:41:21.923Z,98018.28
2023-03-29T05:43:48.540Z,98027.81
2023-03-29T05:46:15.238Z,98025.78
2023-03-29T05:48:41.892Z,98024.38
2023-03-29T05:51:10.592Z,98028.91
2023-03-29T05:53:37.244Z,98028.22
2023-03-29T05:56:03.878Z,98030.13
2023-03-29T05:58:30.642Z,98038.53
2023-03-29T06:00:57.239Z,98046.91
2023-03-29T06:03:24.039Z,98051.03
2023-03-29T06:05:50.723Z,98050.16
2023-03-29T06:08:17.315Z,98056.91
2023-03-29T06:10:44.003Z,98045.16
2023-03-29T06:13:10.569Z,98046.03
2023-03-29T06:15:37.173Z,98044.22
2023-03-29T06:18:03.860Z,98049.34
2023-03-29T06:20:30.507Z,98048.81
2023-03-29T06:22:57.180Z,98039.84
2023-03-29T06:25:23.757Z,98040.94
2023-03-29T06:27:50.450Z,98030.78
2023-03-29T06:30:17.108Z,98037.63
2023-03-29T06:32:43.796Z,98035.31
2023-03-29T06:35:10.437Z,98044.41
2023-03-29T06:37:37.015Z,98031.44
2023-03-29T06:40:03.760Z,98030.28
2023-03-29T06:42:30.423Z,98030.09
2023-03-29T06:44:57.020Z,98033.59
2023-03-29T06:47:23.647Z,98032.63
2023-03-29T06:49:50.557Z,98023.88
2023-03-29T06:52:17.198Z,98019.94
2023-03-29T06:54:43.796Z,98017.84
2023-03-29T06:57:10.426Z,98022.81
2023-03-29T06:59:37.066Z,98031.13
2023-03-29T07:02:03.720Z,98023.16
2023-03-29T07:04:30.399Z,98020.19
2023-03-29T07:06:57.025Z,98021.38
2023-03-29T07:09:23.610Z,98030.50
2023-03-29T07:11:50.162Z,98037.34
2023-03-29T07:14:16.726Z,98038.22
2023-03-29T07:16:43.355Z,98049.19
2023-03-29T07:19:10.418Z,98047.50
2023-03-29T07:21:38.043Z,98049.50
2023-03-29T07:24:04.795Z,98046.25
2023-03-29T07:26:31.356Z,98050.81
2023-03-29T07:28:57.953Z,98061.47
2023-03-29T07:31:24.530Z,98065.59
2023-03-29T07:33:51.190Z,98055.78
2023-03-29T07:36:17.901Z,98051.63
2023-03-29T07:38:44.451Z,98039.16
2023-03-29T07:41:11.041Z,98043.44
2023-03-29T07:43:37.594Z,98042.69
2023-03-29T07:46:04.227Z,98041.31
2023-03-29T07:48:30.807Z,98046.75
2023-03-29T07:50:57.416Z,98040.56
2023-03-29T07:53:23.999Z,98020.38
2023-03-29T07:55:50.563Z,98020.91
2023-03-29T07:58:17.197Z,98042.00
2023-03-29T08:00:43.891Z,98038.50
2023-03-29T08:03:10.606Z,98030.69
2023-03-29T08:05:41.482Z,98042.28
2023-03-29T08:08:08.657Z,98041.06
2023-03-29T08:10:35.216Z,98050.19
2023-03-29T08:13:01.788Z,98051.75
2023-03-29T08:15:28.393Z,98050.44
2023-03-29T08:17:55.063Z,98055.44
2023-03-29T08:20:21.712Z,98038.72
2023-03-29T08:22:48.308Z,98047.28
2023-03-29T08:25:14.868Z,98043.56
2023-03-29T08:27:41.463Z,98043.41
2023-03-29T08:30:08.085Z,98047.34
2023-03-29T08:32:34.705Z,98052.69
2023-03-29T08:35:01.323Z,98034.53
2023-03-29T08:37:27.969Z,98037.34
2023-03-29T08:39:54.526Z,98047.69
2023-03-29T08:42:21.395Z,98039.97
2023-03-29T08:44:47.996Z,98036.19
2023-03-29T08:47:14.559Z,98054.50
2023-03-29T08:49:41.136Z,98034.38
2023-03-29T08:52:07.728Z,98018.97
2023-03-29T08:54:34.334Z,98035.66
2023-03-29T08:57:01.614Z,98042.09
2023-03-29T08:59:28.211Z,98023.19
2023-03-29T09:01:54.821Z,98022.06
2023-03-29T09:04:21.440Z,98032.69
2023-03-29T09:06:48.011Z,98026.50
2023-03-29T09:09:14.665Z,98018.97
2023-03-29T09:11:41.211Z,98025.13
2023-03-29T09:14:07.765Z,98014.41
2023-03-29T09:16:34.502Z,98013.97
2023-03-29T09:19:01.167Z,98023.78
2023-03-29T09:21:27.753Z,98022.78
2023-03-29T09:23:55.711Z,98018.06
2023-03-29T09:26:22.520Z,98022.09
2023-03-29T09:28:49.082Z,98010.72
2023-03-29T09:31:15.767Z,98017.72
2023-03-29T09:33:42.385Z,98017.66
2023-03-29T09:36:09.057Z,98016.31
2023-03-29T09:38:35.691Z,98003.53
2023-03-29T09:41:02.485Z,98012.69
2023-03-29T09:43:29.333Z,98017.25
2023-03-29T09:45:56.075Z,98011.59
2023-03-29T09:48:22.766Z,98004.63
2023-03-29T09:50:49.339Z,98005.84
2023-03-29T09:53:16.025Z,98015.25
2023-03-29T09:55:42.611Z,98013.75
2023-03-29T09:58:09.339Z,98016.13
2023-03-29T10:00:35.915Z,98016.22
2023-03-29T10:03:02.581Z,98001.41
2023-03-29T10:05:29.334Z,98002.38
2023-03-29T10:07:55.955Z,98002.47
2023-03-29T10:10:22.548Z,98001.72
2023-03-29T10:12:49.147Z,98006.13
2023-03-29T10:15:26.801Z,97999.28
2023-03-29T10:17:56.165Z,97994.13
2023-03-29T10:20:22.759Z,97995.56
2023-03-29T10:22:49.458Z,98002.44
2023-03-29T10:25:16.061Z,97994.84
2023-03-29T10:27:42.612Z,97977.53
2023-03-29T10:30:09.186Z,97979.91
2023-03-29T10:32:35.821Z,97983.00
2023-03-29T10:35:02.417Z,97978.09
2023-03-29T10:37:29.018Z,97984.81
2023-03-29T10:39:55.586Z,97978.22
2023-03-29T10:42:22.175Z,97967.50
2023-03-29T10:44:48.713Z,97974.59
2023-03-29T10:47:15.303Z,97966.69
2023-03-29T10:49:41.872Z,97959.81
2023-03-29T10:52:08.474Z,97951.72
2023-03-29T10:54:35.043Z,97955.31
2023-03-29T10:57:01.640Z,97952.13
2023-03-29T10:59:28.236Z,97953.66
2023-03-29T11:01:54.839Z,97947.59
2023-03-29T11:04:21.448Z,97949.84
2023-03-29T11:06:48.045Z,97952.13
2023-03-29T11:09:14.616Z,97945.75
2023-03-29T11:11:41.209Z,97946.13
2023-03-29T11:14:07.924Z,97948.00
2023-03-29T11:16:34.522Z,97939.91
2023-03-29T11:19:01.140Z,97937.03
2023-03-29T11:21:27.743Z,97937.63
2023-03-29T11:23:54.358Z,97940.03
2023-03-29T11:26:20.917Z,97942.19
2023-03-29T11:28:47.472Z,97924.34
2023-03-29T11:31:14.135Z,97928.75
2023-03-29T11:33:40.713Z,97927.38
2023-03-29T11:36:07.378Z,97928.50
2023-03-29T11:38:33.977Z,97921.88
2023-03-29T11:41:00.791Z,97923.81
2023-03-29T11:43:27.524Z,97925.53
2023-03-29T11:45:54.080Z,97921.34
2023-03-29T11:48:20.658Z,97923.22
2023-03-29T11:50:47.230Z,97920.19
2023-03-29T11:53:13.805Z,97907.69
2023-03-29T11:55:40.415Z,97916.94
2023-03-29T11:58:06.976Z,97913.84
2023-03-29T12:00:33.557Z,97897.13
2023-03-29T12:03:00.355Z,97893.38
2023-03-29T12:05:27.012Z,97907.06
2023-03-29T12:07:53.583Z,97891.91
2023-03-29T12:10:20.152Z,97883.72
2023-03-29T12:12:46.784Z,97886.06
2023-03-29T12:15:13.400Z,97885.25
2023-03-29T12:17:40.035Z,97882.78
2023-03-29T12:20:06.640Z,97882.31
2023-03-29T12:22:33.250Z,97874.28
2023-03-29T12:24:59.796Z,97872.06
2023-03-29T12:27:26.480Z,97866.78
2023-03-29T12:29:53.170Z,97860.81
2023-03-29T12:32:19.862Z,97876.53
2023-03-29T12:34:46.597Z,97862.72
2023-03-29T12:37:13.229Z,97858.44
2023-03-29T12:39:39.790Z,97859.84
2023-03-29T12:42:06.355Z,97855.78
2023-03-29T12:44:32.985Z,97849.38
2023-03-29T12:46:59.588Z,97851.31
2023-03-29T12:49:26.170Z,97850.31
2023-03-29T12:51:52.749Z,97843.22
2023-03-29T12:54:19.352Z,97840.53
2023-03-29T12:56:45.914Z,97842.09
2023-03-29T12:59:12.519Z,97848.63
2023-03-29T13:01:39.244Z,97841.50
2023-03-29T13:04:05.965Z,97846.88
2023-03-29T13:06:32.520Z,97845.97
2023-03-29T13:08:59.254Z,97843.19
2023-03-29T13:11:25.823Z,97845.81
2023-03-29T13:13:52.422Z,97834.44
2023-03-29T13:16:19.021Z,97833.00
2023-03-29T13:18:45.579Z,97839.00
2023-03-29T13:21:12.171Z,97837.00
2023-03-29T13:23:38.752Z,97823.00
2023-03-29T13:26:05.485Z,97818.53
2023-03-29T13:28:32.180Z,97815.19
2023-03-29T13:30:58.774Z,97814.75
2023-03-29T13:33:25.365Z,97816.28
2023-03-29T13:35:51.959Z,97815.25
2023-03-29T13:38:18.629Z,97806.72
2023-03-29T13:40:45.177Z,97796.91
2023-03-29T13:43:11.791Z,97799.47
2023-03-29T13:45:38.355Z,97796.91
2023-03-29T13:48:05.833Z,97794.47
2023-03-29T13:50:32.914Z,97801.03
2023-03-29T13:52:59.544Z,97792.84
2023-03-29T13:55:26.113Z,97796.22
2023-03-29T13:57:52.780Z,97788.19
2023-03-29T14:00:19.386Z,97787.69
2023-03-29T14:02:48.721Z,97792.31
2023-03-29T14:05:15.916Z,97784.50
2023-03-29T14:07:42.496Z,97782.66
2023-03-29T14:10:09.096Z,97780.69
2023-03-29T14:12:35.684Z,97779.56
2023-03-29T14:15:02.291Z,97778.50
2023-03-29T14:17:28.948Z,97767.19
2023-03-29T14:19:55.516Z,97755.03
2023-03-29T14:22:22.093Z,97761.88
2023-03-29T14:24:48.663Z,97758.22
2023-03-29T14:27:15.275Z,97762.16
2023-03-29T14:29:41.824Z,97756.31
2023-03-29T14:32:08.541Z,97752.41
2023-03-29T14:34:35.172Z,97752.34
2023-03-29T14:37:01.796Z,97754.50
2023-03-29T14:39:28.437Z,97750.13
2023-03-29T14:41:55.032Z,97752.03
2023-03-29T14:44:21.627Z,97738.06
2023-03-29T14:46:48.205Z,97741.34
2023-03-29T14:49:14.788Z,97734.97
2023-03-29T14:51:43.743Z,97742.19
2023-03-29T14:54:10.340Z,97749.25
2023-03-29T14:56:36.916Z,97732.94
2023-03-29T14:59:03.525Z,97729.97
2023-03-29T15:01:30.151Z,97736.09
2023-03-29T15:03:56.857Z,97726.34
2023-03-29T15:06:23.549Z,97716.53
2023-03-29T15:09:03.745Z,97718.16
2023-03-29T15:11:31.412Z,97722.19
2023-03-29T15:13:58.049Z,97725.13
2023-03-29T15:16:24.718Z,97722.16
2023-03-29T15:18:51.301Z,97719.63
2023-03-29T15:21:18.196Z,97724.16
2023-03-29T15:23:44.856Z,97711.47
2023-03-29T15:26:11.480Z,97711.53
2023-03-29T15:28:38.040Z,97707.06
2023-03-29T15:31:08.246Z,97710.19
2023-03-29T15:33:35.272Z,97700.59
2023-03-29T15:36:02.288Z,97695.50
2023-03-29T15:38:36.734Z,97687.69
2023-03-29T15:41:10.234Z,97687.53
2023-03-29T15:43:36.829Z,97688.44
2023-03-29T15:46:03.936Z,97691.09
2023-03-29T15:48:30.810Z,97690.47
2023-03-29T15:50:59.244Z,97688.13
2023-03-29T15:53:28.129Z,97692.75
2023-03-29T15:55:54.756Z,97703.50
2023-03-29T15:58:21.423Z,97694.34
2023-03-29T16:00:48.020Z,97697.94
2023-03-29T16:03:14.716Z,97695.00
2023-03-29T16:05:41.330Z,97693.34
2023-03-29T16:08:07.928Z,97690.25
2023-03-29T16:10:34.473Z,97688.31
2023-03-29T16:13:01.058Z,97695.34
2023-03-29T16:15:27.608Z,97695.13
2023-03-29T16:17:54.250Z,97696.56
2023-03-29T16:20:20.844Z,97700.69
2023-03-29T16:22:47.394Z,97700.25
2023-03-29T16:25:14.003Z,97698.22
2023-03-29T16:27:40.617Z,97695.38
2023-03-29T16:30:07.198Z,97695.34
2023-03-29T16:32:33.825Z,97694.91
2023-03-29T16:35:00.433Z,97695.91
2023-03-29T16:37:26.997Z,97693.03
2023-03-29T16:39:53.574Z,97689.00
2023-03-29T16:42:20.114Z,97700.44
2023-03-29T16:44:46.684Z,97708.97
2023-03-29T16:47:13.391Z,97715.69
2023-03-29T16:49:40.286Z,97704.91
2023-03-29T16:52:07.124Z,97705.72
2023-03-29T16:54:33.684Z,97695.91
2023-03-29T16:57:00.356Z,97703.63
2023-03-29T16:59:26.937Z,97718.91
2023-03-29T17:01:53.564Z,97707.84
2023-03-29T17:04:20.246Z,97726.84
2023-03-29T17:06:47.032Z,97712.16
2023-03-29T17:09:13.605Z,97717.28
2023-03-29T17:11:40.164Z,97716.50
2023-03-29T17:14:06.789Z,97715.38
2023-03-29T17:16:33.457Z,97720.03
2023-03-29T17:19:00.318Z,97719.63
2023-03-29T17:21:27.137Z,97709.91
2023-03-29T17:23:53.755Z,97715.13
2023-03-29T17:26:20.326Z,97725.06
2023-03-29T17:28:46.950Z,97727.50
2023-03-29T17:31:13.618Z,97716.41
2023-03-29T17:33:40.191Z,97724.41
2023-03-29T17:36:07.320Z,97720.56
2023-03-29T17:38:34.497Z,97729.06
2023-03-29T17:41:01.144Z,97745.94
2023-03-29T17:43:27.768Z,97743.31
2023-03-29T17:45:54.322Z,97740.09
2023-03-29T17:48:21.085Z,97748.66
2023-03-29T17:50:47.726Z,97752.53
2023-03-29T17:53:14.280Z,97750.06
2023-03-29T17:55:40.893Z,97754.16
2023-03-29T17:58:07.471Z,97753.97
2023-03-29T18:00:34.177Z,97744.34
2023-03-29T18:03:00.830Z,97752.06
2023-03-29T18:05:27.396Z,97755.34
2023-03-29T18:07:53.955Z,97750.06
2023-03-29T18:10:20.845Z,97750.06
2023-03-29T18:12:47.470Z,97758.34
2023-03-29T18:15:14.001Z,97757.97
2023-03-29T18:17:40.598Z,97765.88
2023-03-29T18:20:07.209Z,97768.22
2023-03-29T18:22:33.771Z,97761.91
2023-03-29T18:25:00.382Z,97772.03
2023-03-29T18:27:26.981Z,97775.34
2023-03-29T18:29:53.549Z,97782.19
2023-03-29T18:32:20.196Z,97780.56
2023-03-29T18:34:46.829Z,97794.38
2023-03-29T18:37:13.446Z,97800.31
2023-03-29T18:39:40.010Z,97795.63
2023-03-29T18:42:06.591Z,97791.00
2023-03-29T18:44:33.140Z,97788.59
2023-03-29T18:46:59.737Z,97790.22
2023-03-29T18:49:26.299Z,97796.91
2023-03-29T18:51:52.890Z,97778.41
2023-03-29T18:54:19.464Z,97787.88
2023-03-29T18:56:46.127Z,97796.84
2023-03-29T18:59:12.736Z,97799.13
2023-03-29T19:01:39.364Z,97796.41
2023-03-29T19:04:05.955Z,97788.50
2023-03-29T19:06:32.530Z,97792.41
2023-03-29T19:08:59.187Z,97787.84
2023-03-29T19:11:27.713Z,97793.41
2023-03-29T19:13:55.593Z,97795.72
2023-03-29T19:16:22.446Z,97796.69
2023-03-29T19:18:49.126Z,97790.97
2023-03-29T19:21:15.735Z,97789.75
2023-03-29T19:23:42.309Z,97778.69
2023-03-29T19:26:08.901Z,97789.97
2023-03-29T19:28:35.772Z,97794.63
2023-03-29T19:31:02.426Z,97808.56
2023-03-29T19:33:29.046Z,97811.72
2023-03-29T19:35:55.672Z,97815.09
2023-03-29T19:38:22.405Z,97809.75
2023-03-29T19:40:48.957Z,97806.28
2023-03-29T19:43:15.536Z,97804.47
2023-03-29T19:45:42.102Z,97810.91
2023-03-29T19:48:19.445Z,97817.22
2023-03-29T19:50:48.308Z,97815.47
2023-03-29T19:53:14.888Z,97813.34
2023-03-29T19:55:41.473Z,97810.06
2023-03-29T19:58:08.011Z,97809.84
2023-03-29T20:00:34.601Z,97803.91
2023-03-29T20:03:01.302Z,97808.53
2023-03-29T20:05:27.945Z,97806.88
2023-03-29T20:07:54.509Z,97806.75
2023-03-29T20:10:21.142Z,97806.59
2023-03-29T20:12:47.739Z,97793.63
2023-03-29T20:15:14.512Z,97791.34
2023-03-29T20:17:41.183Z,97794.47
2023-03-29T20:20:07.766Z,97786.94
2023-03-29T20:22:34.352Z,97784.31
2023-03-29T20:25:00.937Z,97788.09
2023-03-29T20:27:27.477Z,97778.44
2023-03-29T20:29:54.039Z,97781.09
2023-03-29T20:32:20.829Z,97778.81
2023-03-29T20:34:47.533Z,97772.59
2023-03-29T20:37:14.087Z,97776.34
2023-03-29T20:39:40.728Z,97785.00
2023-03-29T20:42:07.321Z,97792.03
2023-03-29T20:44:35.322Z,97794.03
2023-03-29T20:47:02.044Z,97787.47
2023-03-29T20:49:28.639Z,97788.28
2023-03-29T20:51:55.258Z,97784.84
2023-03-29T20:54:21.808Z,97772.88
2023-03-29T20:56:48.448Z,97786.16
2023-03-29T20:59:15.101Z,97781.72
2023-03-29T21:01:41.682Z,97787.63
2023-03-29T21:04:08.281Z,97794.31
2023-03-29T21:06:34.874Z,97786.63
2023-03-29T21:09:01.460Z,97779.44
2023-03-29T21:11:29.661Z,97774.19
2023-03-29T21:13:56.283Z,97767.16
2023-03-29T21:16:23.084Z,97769.41
2023-03-29T21:18:49.739Z,97771.47
2023-03-29T21:21:16.319Z,97766.13
2023-03-29T21:23:42.981Z,97767.59
2023-03-29T21:26:09.604Z,97760.72
2023-03-29T21:28:36.180Z,97773.13
2023-03-29T21:31:02.978Z,97775.78
2023-03-29T21:33:29.800Z,97783.59
2023-03-29T21:35:56.485Z,97785.28
2023-03-29T21:38:23.071Z,97776.47
2023-03-29T21:40:49.619Z,97783.56
2023-03-29T21:43:16.177Z,97788.41
2023-03-29T21:45:42.844Z,97783.47
2023-03-29T21:48:09.530Z,97777.28
2023-03-29T21:50:36.147Z,97789.28
2023-03-29T21:53:02.711Z,97786.94
2023-03-29T21:55:29.274Z,97768.25
2023-03-29T21:57:55.846Z,97768.75
2023-03-29T22:00:22.418Z,97756.34
2023-03-29T22:02:49.035Z,97765.13
2023-03-29T22:05:15.662Z,97761.41
2023-03-29T22:07:42.202Z,97752.00
2023-03-29T22:10:08.791Z,97766.06
2023-03-29T22:12:35.370Z,97756.53
2023-03-29T22:15:01.997Z,97751.06
2023-03-29T22:17:28.617Z,97745.97
2023-03-29T22:19:55.264Z,97744.50
2023-03-29T22:22:21.803Z,97748.81
2023-03-29T22:24:48.361Z,97749.75
2023-03-29T22:27:14.939Z,97756.28
2023-03-29T22:29:41.479Z,97757.31
2023-03-29T22:32:08.149Z,97761.31
2023-03-29T22:34:34.856Z,97765.47
2023-03-29T22:37:01.468Z,97753.72
2023-03-29T22:39:28.048Z,97741.28
2023-03-29T22:41:54.623Z,97747.78
2023-03-29T22:44:21.197Z,97743.16
2023-03-29T22:46:47.876Z,97744.44
2023-03-29T22:49:14.422Z,97744.09
2023-03-29T22:51:41.271Z,97738.34
2023-03-29T22:54:07.869Z,97743.94
2023-03-29T22:56:34.422Z,97744.63
2023-03-29T22:59:01.028Z,97732.72
2023-03-29T23:01:27.760Z,97730.22
2023-03-29T23:03:54.383Z,97724.25
2023-03-29T23:06:20.997Z,97730.03
2023-03-29T23:08:47.584Z,97722.00
2023-03-29T23:11:14.164Z,97723.34
2023-03-29T23:13:40.729Z,97721.56
2023-03-29T23:16:07.295Z,97715.50
2023-03-29T23:18:33.882Z,97714.84
2023-03-29T23:21:00.440Z,97712.72
2023-03-29T23:23:27.109Z,97727.47
2023-03-29T23:25:53.666Z,97727.19
2023-03-29T23:28:20.251Z,97726.47
2023-03-29T23:30:46.818Z,97730.44
2023-03-29T23:33:13.366Z,97729.38
2023-03-29T23:35:40.006Z,97712.63
2023-03-29T23:38:06.598Z,97701.00
2023-03-29T23:40:33.180Z,97695.34
2023-03-29T23:42:59.902Z,97700.91
2023-03-29T23:45:26.527Z,97716.13
2023-03-29T23:47:53.142Z,97711.25
2023-03-29T23:50:19.701Z,97706.19
2023-03-29T23:52:46.273Z,97700.81
2023-03-29T23:55:12.819Z,97708.78
2023-03-29T23:57:39.390Z,97713.84
